createdAt,value
2023-01-12T00:00:22.888Z,0.00
2023-01-12T00:01:22.857Z,0.00
2023-01-12T00:02:22.898Z,0.00
2023-01-12T00:03:22.835Z,0.00
2023-01-12T00:04:22.868Z,0.00
2023-01-12T00:05:22.827Z,0.00
2023-01-12T00:06:22.819Z,0.00
2023-01-12T00:07:22.810Z,0.00
2023-01-12T00:08:22.794Z,0.00
2023-01-12T00:09:22.805Z,0.00
2023-01-12T00:10:22.786Z,0.00
2023-01-12T00:11:22.780Z,0.00
2023-01-12T00:12:22.777Z,0.00
2023-01-12T00:13:22.765Z,0.00
2023-01-12T00:14:22.765Z,0.00
2023-01-12T00:15:22.749Z,0.00
2023-01-12T00:16:24.771Z,0.00
2023-01-12T00:17:22.759Z,0.00
2023-01-12T00:18:22.729Z,0.00
2023-01-12T00:19:22.727Z,0.00
2023-01-12T00:20:22.727Z,0.00
2023-01-12T00:21:22.708Z,0.00
2023-01-12T00:22:22.705Z,0.00
2023-01-12T00:23:22.695Z,0.00
2023-01-12T00:24:22.687Z,0.00
2023-01-12T00:25:22.684Z,0.00
2023-01-12T00:26:22.666Z,0.00
2023-01-12T00:27:22.659Z,0.00
2023-01-12T00:28:22.660Z,0.00
2023-01-12T00:29:22.648Z,0.00
2023-01-12T00:30:22.650Z,0.00
2023-01-12T00:31:22.704Z,0.00
2023-01-12T00:32:22.633Z,0.00
2023-01-12T00:33:22.617Z,0.00
2023-01-12T00:34:22.630Z,0.00
2023-01-12T00:35:22.602Z,0.00
2023-01-12T00:36:22.618Z,0.00
2023-01-12T00:37:22.592Z,0.00
2023-01-12T00:38:22.583Z,0.00
2023-01-12T00:39:22.655Z,0.00
2023-01-12T00:40:22.560Z,0.00
2023-01-12T00:41:22.556Z,0.00
2023-01-12T00:42:22.550Z,0.00
2023-01-12T00:43:22.548Z,0.00
2023-01-12T00:44:22.538Z,0.00
2023-01-12T00:45:22.599Z,0.00
2023-01-12T00:46:22.550Z,0.00
2023-01-12T00:47:22.509Z,0.00
2023-01-12T00:48:22.519Z,0.00
2023-01-12T00:49:22.490Z,0.00
2023-01-12T00:50:22.495Z,0.00
2023-01-12T00:51:22.499Z,0.00
2023-01-12T00:52:30.734Z,0.00
2023-01-12T00:53:22.469Z,0.00
2023-01-12T00:54:22.460Z,0.00
2023-01-12T00:55:22.507Z,0.00
2023-01-12T00:56:22.450Z,0.00
2023-01-12T00:57:22.432Z,0.00
2023-01-12T00:58:23.494Z,0.00
2023-01-12T00:59:22.432Z,0.00
2023-01-12T01:00:22.425Z,0.00
2023-01-12T01:01:22.489Z,0.00
2023-01-12T01:02:22.471Z,0.00
2023-01-12T01:03:22.404Z,0.00
2023-01-12T01:04:22.384Z,0.00
2023-01-12T01:05:22.375Z,0.00
2023-01-12T01:06:22.370Z,0.00
2023-01-12T01:07:22.377Z,0.00
2023-01-12T01:08:22.359Z,0.00
2023-01-12T01:09:22.348Z,0.00
2023-01-12T01:10:22.355Z,0.00
2023-01-12T01:11:22.331Z,0.00
2023-01-12T01:12:22.322Z,0.00
2023-01-12T01:13:22.323Z,0.00
2023-01-12T01:14:22.318Z,0.00
2023-01-12T01:15:22.307Z,0.00
2023-01-12T01:16:22.354Z,0.00
2023-01-12T01:17:22.287Z,0.00
2023-01-12T01:18:22.289Z,0.00
2023-01-12T01:19:22.268Z,0.00
2023-01-12T01:20:22.262Z,0.00
2023-01-12T01:21:22.261Z,0.00
2023-01-12T01:22:22.251Z,0.00
2023-01-12T01:23:22.257Z,0.00
2023-01-12T01:24:22.237Z,0.00
2023-01-12T01:25:22.242Z,0.00
2023-01-12T01:26:22.228Z,0.00
2023-01-12T01:27:22.213Z,0.00
2023-01-12T01:28:22.201Z,0.00
2023-01-12T01:29:22.211Z,0.00
2023-01-12T01:30:22.187Z,0.00
2023-01-12T01:31:22.221Z,0.00
2023-01-12T01:32:22.173Z,0.00
2023-01-12T01:33:22.167Z,0.00
2023-01-12T01:34:22.165Z,0.00
2023-01-12T01:35:22.159Z,0.00
2023-01-12T01:36:22.146Z,0.00
2023-01-12T01:37:22.143Z,0.00
2023-01-12T01:38:22.135Z,0.00
2023-01-12T01:39:22.127Z,0.00
2023-01-12T01:40:22.123Z,0.00
2023-01-12T01:41:22.122Z,0.00
2023-01-12T01:42:22.101Z,0.00
2023-01-12T01:43:22.095Z,0.00
2023-01-12T01:44:22.083Z,0.00
2023-01-12T01:45:22.079Z,0.00
2023-01-12T01:46:22.106Z,0.00
2023-01-12T01:47:22.080Z,0.00
2023-01-12T01:48:22.059Z,0.00
2023-01-12T01:49:22.049Z,0.00
2023-01-12T01:50:22.038Z,0.00
2023-01-12T01:51:22.040Z,0.00
2023-01-12T01:52:22.039Z,0.00
2023-01-12T01:53:22.015Z,0.00
2023-01-12T01:54:22.010Z,0.00
2023-01-12T01:55:22.005Z,0.00
2023-01-12T01:56:21.995Z,0.00
2023-01-12T01:57:22.001Z,0.00
2023-01-12T01:58:21.996Z,0.00
2023-01-12T01:59:21.979Z,0.00
2023-01-12T02:00:21.966Z,0.00
2023-01-12T02:01:22.095Z,0.00
2023-01-12T02:02:21.986Z,0.00
2023-01-12T02:03:21.953Z,0.00
2023-01-12T02:04:21.944Z,0.00
2023-01-12T02:05:21.931Z,0.00
2023-01-12T02:06:21.929Z,0.00
2023-01-12T02:07:21.915Z,0.00
2023-01-12T02:08:21.898Z,0.00
2023-01-12T02:09:21.912Z,0.00
2023-01-12T02:10:21.917Z,0.00
2023-01-12T02:11:21.884Z,0.00
2023-01-12T02:12:21.882Z,0.00
2023-01-12T02:13:21.864Z,0.00
2023-01-12T02:14:21.868Z,0.00
2023-01-12T02:15:21.860Z,0.00
2023-01-12T02:16:21.904Z,0.00
2023-01-12T02:17:21.842Z,0.00
2023-01-12T02:18:21.844Z,0.00
2023-01-12T02:19:21.827Z,0.00
2023-01-12T02:20:21.819Z,0.00
2023-01-12T02:21:21.814Z,0.00
2023-01-12T02:22:21.816Z,0.00
2023-01-12T02:23:21.808Z,0.00
2023-01-12T02:24:21.792Z,0.00
2023-01-12T02:25:21.777Z,0.00
2023-01-12T02:26:21.785Z,0.00
2023-01-12T02:27:21.766Z,0.00
2023-01-12T02:28:21.781Z,0.00
2023-01-12T02:29:21.773Z,0.00
2023-01-12T02:30:21.754Z,0.00
2023-01-12T02:31:21.755Z,0.00
2023-01-12T02:32:21.731Z,0.00
2023-01-12T02:33:21.726Z,0.00
2023-01-12T02:34:21.707Z,0.00
2023-01-12T02:35:21.713Z,0.00
2023-01-12T02:36:21.703Z,0.00
2023-01-12T02:37:21.695Z,0.00
2023-01-12T02:38:21.705Z,0.00
2023-01-12T02:39:21.691Z,0.00
2023-01-12T02:40:21.665Z,0.00
2023-01-12T02:41:21.675Z,0.00
2023-01-12T02:42:21.670Z,0.00
2023-01-12T02:43:21.647Z,0.00
2023-01-12T02:44:23.680Z,0.00
2023-01-12T02:45:21.639Z,0.00
2023-01-12T02:46:21.669Z,0.00
2023-01-12T02:47:21.631Z,0.00
2023-01-12T02:48:21.614Z,0.00
2023-01-12T02:49:21.627Z,0.00
2023-01-12T02:50:21.606Z,0.00
2023-01-12T02:51:21.606Z,0.00
2023-01-12T02:52:21.589Z,0.00
2023-01-12T02:53:21.578Z,0.00
2023-01-12T02:54:21.586Z,0.00
2023-01-12T02:55:21.561Z,0.00
2023-01-12T02:56:21.551Z,0.00
2023-01-12T02:57:21.559Z,0.00
2023-01-12T02:58:21.536Z,0.00
2023-01-12T02:59:21.531Z,0.00
2023-01-12T03:00:21.529Z,0.00
2023-01-12T03:01:21.589Z,0.00
2023-01-12T03:02:21.517Z,0.00
2023-01-12T03:03:21.583Z,0.00
2023-01-12T03:04:21.492Z,0.00
2023-01-12T03:05:21.498Z,0.00
2023-01-12T03:06:21.476Z,0.00
2023-01-12T03:07:21.477Z,0.00
2023-01-12T03:08:21.472Z,0.00
2023-01-12T03:09:21.459Z,0.00
2023-01-12T03:10:21.454Z,0.00
2023-01-12T03:11:21.450Z,0.00
2023-01-12T03:12:21.443Z,0.00
2023-01-12T03:13:21.434Z,0.00
2023-01-12T03:14:21.421Z,0.00
2023-01-12T03:15:21.417Z,0.00
2023-01-12T03:16:21.494Z,0.00
2023-01-12T03:17:21.398Z,0.00
2023-01-12T03:18:21.394Z,0.00
2023-01-12T03:19:21.434Z,0.00
2023-01-12T03:20:21.391Z,0.00
2023-01-12T03:21:21.387Z,0.00
2023-01-12T03:22:21.367Z,0.00
2023-01-12T03:23:21.355Z,0.00
2023-01-12T03:24:21.339Z,0.00
2023-01-12T03:25:21.348Z,0.00
2023-01-12T03:26:21.339Z,0.00
2023-01-12T03:27:21.329Z,0.00
2023-01-12T03:28:21.322Z,0.00
2023-01-12T03:29:21.321Z,0.00
2023-01-12T03:30:21.298Z,0.00
2023-01-12T03:31:21.343Z,0.00
2023-01-12T03:32:21.290Z,0.00
2023-01-12T03:33:21.286Z,0.00
2023-01-12T03:34:21.271Z,0.00
2023-01-12T03:35:21.270Z,0.00
2023-01-12T03:36:21.268Z,0.00
2023-01-12T03:37:21.258Z,0.00
2023-01-12T03:38:21.244Z,0.00
2023-01-12T03:39:21.229Z,0.00
2023-01-12T03:40:21.229Z,0.00
2023-01-12T03:41:21.222Z,0.00
2023-01-12T03:42:21.217Z,0.00
2023-01-12T03:43:21.218Z,0.00
2023-01-12T03:44:21.199Z,0.00
2023-01-12T03:45:21.188Z,0.00
2023-01-12T03:46:21.257Z,0.00
2023-01-12T03:47:21.184Z,0.00
2023-01-12T03:48:21.169Z,0.00
2023-01-12T03:49:21.164Z,0.00
2023-01-12T03:50:21.170Z,0.00
2023-01-12T03:51:21.168Z,0.00
2023-01-12T03:52:21.148Z,0.00
2023-01-12T03:53:21.132Z,0.00
2023-01-12T03:54:21.136Z,0.00
2023-01-12T03:55:21.109Z,0.00
2023-01-12T03:56:21.122Z,0.00
2023-01-12T03:57:21.099Z,0.00
2023-01-12T03:58:21.100Z,0.00
2023-01-12T03:59:21.089Z,0.00
2023-01-12T04:00:21.081Z,0.00
2023-01-12T04:01:21.257Z,0.00
2023-01-12T04:02:21.067Z,0.00
2023-01-12T04:03:21.106Z,0.00
2023-01-12T04:04:21.058Z,0.00
2023-01-12T04:05:21.043Z,0.00
2023-01-12T04:06:21.036Z,0.00
2023-01-12T04:07:21.027Z,0.00
2023-01-12T04:08:21.019Z,0.00
2023-01-12T04:09:21.021Z,0.00
2023-01-12T04:10:21.016Z,0.00
2023-01-12T04:11:20.997Z,0.00
2023-01-12T04:12:20.987Z,0.00
2023-01-12T04:13:20.984Z,0.00
2023-01-12T04:14:20.987Z,0.00
2023-01-12T04:15:20.968Z,0.00
2023-01-12T04:16:21.039Z,0.00
2023-01-12T04:17:20.961Z,0.00
2023-01-12T04:18:20.964Z,0.00
2023-01-12T04:19:20.949Z,0.00
2023-01-12T04:20:20.944Z,0.00
2023-01-12T04:21:20.927Z,0.00
2023-01-12T04:22:20.923Z,0.00
2023-01-12T04:23:20.912Z,0.00
2023-01-12T04:24:20.915Z,0.00
2023-01-12T04:25:20.893Z,0.00
2023-01-12T04:26:20.894Z,0.00
2023-01-12T04:27:20.904Z,0.00
2023-01-12T04:28:20.876Z,0.00
2023-01-12T04:29:20.868Z,0.00
2023-01-12T04:30:20.887Z,0.00
2023-01-12T04:31:20.904Z,0.00
2023-01-12T04:32:20.878Z,0.00
2023-01-12T04:33:20.849Z,0.00
2023-01-12T04:34:20.845Z,0.00
2023-01-12T04:35:20.820Z,0.00
2023-01-12T04:36:20.816Z,0.00
2023-01-12T04:37:20.815Z,0.00
2023-01-12T04:38:20.805Z,0.00
2023-01-12T04:39:20.791Z,0.00
2023-01-12T04:40:20.787Z,0.00
2023-01-12T04:41:20.781Z,0.00
2023-01-12T04:42:20.767Z,0.00
2023-01-12T04:43:20.752Z,0.00
2023-01-12T04:44:20.762Z,0.00
2023-01-12T04:45:20.747Z,0.00
2023-01-12T04:46:20.751Z,0.00
2023-01-12T04:47:20.734Z,0.00
2023-01-12T04:48:20.724Z,0.00
2023-01-12T04:49:20.714Z,0.00
2023-01-12T04:50:20.708Z,0.00
2023-01-12T04:51:20.704Z,0.00
2023-01-12T04:52:20.693Z,0.00
2023-01-12T04:53:20.727Z,0.00
2023-01-12T04:54:20.713Z,0.00
2023-01-12T04:55:20.672Z,0.00
2023-01-12T04:56:20.678Z,0.00
2023-01-12T04:57:20.681Z,0.00
2023-01-12T04:58:20.674Z,0.00
2023-01-12T04:59:20.644Z,0.00
2023-01-12T05:00:20.637Z,0.00
2023-01-12T05:01:20.692Z,0.00
2023-01-12T05:02:20.633Z,0.00
2023-01-12T05:03:20.616Z,0.00
2023-01-12T05:04:20.687Z,0.00
2023-01-12T05:05:20.614Z,0.00
2023-01-12T05:06:20.592Z,0.00
2023-01-12T05:07:20.587Z,0.00
2023-01-12T05:08:20.579Z,0.00
2023-01-12T05:09:20.575Z,0.00
2023-01-12T05:10:20.566Z,0.00
2023-01-12T05:11:20.550Z,0.00
2023-01-12T05:12:20.547Z,0.00
2023-01-12T05:13:20.539Z,0.00
2023-01-12T05:14:20.529Z,0.00
2023-01-12T05:17:56.163Z,0.00
2023-01-12T05:18:56.143Z,0.00
2023-01-12T05:20:50.348Z,0.00
2023-01-12T05:21:50.334Z,0.00
2023-01-12T05:23:44.394Z,0.00
2023-01-12T05:24:44.369Z,0.00
2023-01-12T05:26:38.459Z,0.00
2023-01-12T05:27:38.438Z,0.00
2023-01-12T05:29:32.624Z,0.00
2023-01-12T05:30:32.705Z,0.00
2023-01-12T05:32:26.344Z,0.00
2023-01-12T05:33:26.331Z,0.00
2023-01-12T05:35:22.168Z,0.00
2023-01-12T05:36:22.161Z,0.00
2023-01-12T05:38:16.309Z,0.00
2023-01-12T05:39:16.286Z,0.00
2023-01-12T05:41:10.398Z,0.00
2023-01-12T05:42:10.375Z,0.00
2023-01-12T05:44:05.570Z,0.00
2023-01-12T05:45:05.538Z,0.00
2023-01-12T05:46:59.705Z,0.00
2023-01-12T05:47:59.687Z,0.00
2023-01-12T05:49:53.835Z,0.00
2023-01-12T05:50:53.822Z,0.00
2023-01-12T05:52:47.586Z,0.00
2023-01-12T05:53:47.578Z,0.00
2023-01-12T05:55:41.327Z,0.00
2023-01-12T05:56:41.412Z,0.00
2023-01-12T05:58:35.446Z,0.00
2023-01-12T05:59:35.425Z,0.00
2023-01-12T06:01:30.339Z,0.00
2023-01-12T06:02:30.281Z,0.00
2023-01-12T06:04:24.241Z,0.00
2023-01-12T06:05:24.226Z,0.00
2023-01-12T06:07:18.382Z,0.00
2023-01-12T06:08:18.344Z,0.00
2023-01-12T06:10:13.614Z,0.00
2023-01-12T06:11:13.603Z,0.00
2023-01-12T06:13:07.916Z,0.00
2023-01-12T06:14:07.898Z,0.00
2023-01-12T06:16:02.399Z,0.00
2023-01-12T06:17:02.327Z,0.00
2023-01-12T06:18:56.158Z,0.00
2023-01-12T06:19:56.133Z,0.00
2023-01-12T06:21:50.460Z,0.00
2023-01-12T06:22:50.439Z,0.00
2023-01-12T06:24:45.188Z,0.00
2023-01-12T06:25:45.180Z,0.00
2023-01-12T06:27:39.280Z,0.00
2023-01-12T06:28:39.264Z,0.00
2023-01-12T06:30:33.727Z,0.00
2023-01-12T06:31:33.780Z,0.00
2023-01-12T06:33:27.832Z,0.00
2023-01-12T06:34:27.803Z,0.00
2023-01-12T06:36:21.954Z,0.00
2023-01-12T06:37:21.940Z,0.00
2023-01-12T06:39:16.120Z,0.00
2023-01-12T06:40:16.116Z,0.00
2023-01-12T06:42:11.366Z,0.00
2023-01-12T06:43:11.092Z,0.00
2023-01-12T06:44:11.260Z,0.00
2023-01-12T06:45:12.015Z,0.00
2023-01-12T06:46:10.985Z,0.00
2023-01-12T06:47:10.981Z,0.00
2023-01-12T06:48:10.986Z,0.00
2023-01-12T06:49:10.956Z,0.00
2023-01-12T06:50:10.946Z,0.00
2023-01-12T06:51:10.959Z,0.00
2023-01-12T06:52:10.955Z,0.00
2023-01-12T06:53:10.938Z,0.00
2023-01-12T06:54:10.918Z,0.00
2023-01-12T06:55:10.940Z,0.00
2023-01-12T06:56:10.907Z,0.00
2023-01-12T06:57:10.875Z,0.00
2023-01-12T06:58:10.914Z,0.00
2023-01-12T06:59:10.878Z,0.00
2023-01-12T07:00:10.881Z,0.00
2023-01-12T07:01:10.950Z,0.00
2023-01-12T07:02:10.976Z,0.00
2023-01-12T07:03:10.842Z,0.00
2023-01-12T07:04:10.840Z,0.00
2023-01-12T07:05:10.891Z,0.00
2023-01-12T07:06:10.848Z,0.00
2023-01-12T07:07:10.830Z,0.00
2023-01-12T07:08:10.824Z,0.00
2023-01-12T07:09:10.792Z,0.00
2023-01-12T07:10:10.786Z,0.00
2023-01-12T07:11:10.780Z,0.00
2023-01-12T07:12:10.756Z,0.00
2023-01-12T07:13:10.781Z,0.00
2023-01-12T07:14:10.746Z,0.00
2023-01-12T07:15:10.757Z,0.00
2023-01-12T07:16:10.833Z,0.00
2023-01-12T07:17:10.718Z,4.00
2023-01-12T07:18:10.739Z,4.00
2023-01-12T07:19:10.703Z,4.00
2023-01-12T07:20:10.716Z,4.00
2023-01-12T07:21:31.738Z,0.00
2023-01-12T07:22:10.703Z,0.00
2023-01-12T07:23:10.695Z,4.00
2023-01-12T07:24:10.691Z,4.00
2023-01-12T07:25:10.663Z,4.00
2023-01-12T07:26:10.671Z,8.00
2023-01-12T07:27:10.683Z,4.00
2023-01-12T07:28:10.655Z,8.00
2023-01-12T07:29:10.637Z,4.00
2023-01-12T07:30:10.631Z,8.00
2023-01-12T07:31:10.691Z,8.00
2023-01-12T07:32:10.639Z,8.00
2023-01-12T07:33:10.623Z,4.00
2023-01-12T07:34:10.599Z,4.00
2023-01-12T07:35:10.622Z,8.00
2023-01-12T07:36:10.593Z,8.00
2023-01-12T07:37:10.609Z,8.00
2023-01-12T07:38:10.568Z,8.00
2023-01-12T07:39:10.562Z,12.00
2023-01-12T07:40:10.569Z,12.00
2023-01-12T07:42:47.196Z,12.00
2023-01-12T07:43:46.604Z,12.00
2023-01-12T07:45:40.743Z,16.00
2023-01-12T07:46:40.757Z,16.00
2023-01-12T07:48:36.868Z,20.00
2023-01-12T07:49:36.833Z,20.00
2023-01-12T07:51:30.943Z,24.00
2023-01-12T07:52:30.932Z,24.00
2023-01-12T07:54:25.179Z,32.00
2023-01-12T07:55:25.257Z,36.00
2023-01-12T07:57:20.582Z,40.00
2023-01-12T07:58:20.555Z,40.00
2023-01-12T08:00:15.855Z,44.00
2023-01-12T08:01:15.828Z,48.00
2023-01-12T08:03:10.993Z,48.00
2023-01-12T08:04:10.960Z,48.00
2023-01-12T08:06:04.803Z,52.00
2023-01-12T08:07:04.782Z,56.00
2023-01-12T08:08:58.883Z,60.00
2023-01-12T08:09:58.887Z,64.00
2023-01-12T08:11:53.016Z,72.00
2023-01-12T08:12:53.009Z,76.00
2023-01-12T08:14:47.210Z,84.00
2023-01-12T08:15:47.236Z,88.00
2023-01-12T08:17:43.119Z,92.00
2023-01-12T08:18:43.102Z,96.00
2023-01-12T08:20:37.913Z,100.00
2023-01-12T08:21:37.935Z,104.00
2023-01-12T08:23:32.085Z,104.00
2023-01-12T08:24:32.025Z,104.00
2023-01-12T08:26:27.293Z,100.00
2023-01-12T08:27:27.271Z,100.00
2023-01-12T08:29:21.340Z,112.00
2023-01-12T08:30:21.254Z,116.00
2023-01-12T08:32:16.550Z,124.00
2023-01-12T08:33:16.536Z,132.00
2023-01-12T08:35:11.548Z,136.00
2023-01-12T08:38:06.689Z,152.00
2023-01-12T08:39:06.696Z,148.00
2023-01-12T08:41:00.779Z,152.00
2023-01-12T08:42:00.768Z,156.00
2023-01-12T08:43:54.922Z,156.00
2023-01-12T08:44:54.893Z,160.00
2023-01-12T08:46:49.065Z,172.00
2023-01-12T08:47:49.023Z,176.00
2023-01-12T08:49:43.910Z,184.00
2023-01-12T08:50:43.915Z,196.00
2023-01-12T08:52:39.139Z,204.00
2023-01-12T08:53:39.129Z,196.00
2023-01-12T08:55:34.796Z,188.00
2023-01-12T08:56:34.765Z,200.00
2023-01-12T08:58:30.133Z,208.00
2023-01-12T08:59:30.023Z,200.00
2023-01-12T09:01:25.117Z,196.00
2023-01-12T09:02:25.054Z,188.00
2023-01-12T09:04:19.892Z,192.00
2023-01-12T09:05:19.913Z,196.00
2023-01-12T09:07:15.021Z,200.00
2023-01-12T09:08:14.974Z,200.00
2023-01-12T09:10:10.013Z,200.00
2023-01-12T09:11:09.980Z,204.00
2023-01-12T09:13:04.817Z,208.00
2023-01-12T09:14:04.724Z,212.00
2023-01-12T09:16:11.620Z,220.00
2023-01-12T09:16:59.957Z,240.00
2023-01-12T09:18:56.118Z,264.00
2023-01-12T09:19:56.083Z,276.00
2023-01-12T09:21:50.408Z,276.00
2023-01-12T09:22:50.345Z,276.00
2023-01-12T09:24:45.089Z,284.00
2023-01-12T09:25:45.071Z,288.00
2023-01-12T09:27:39.359Z,280.00
2023-01-12T09:28:39.306Z,280.00
2023-01-12T09:30:33.822Z,276.00
2023-01-12T09:31:33.743Z,280.00
2023-01-12T09:33:28.934Z,292.00
2023-01-12T09:34:29.065Z,304.00
2023-01-12T09:36:23.855Z,296.00
2023-01-12T09:37:23.815Z,284.00
2023-01-12T09:39:27.394Z,284.00
2023-01-12T09:40:18.958Z,276.00
2023-01-12T09:42:13.179Z,280.00
2023-01-12T09:43:13.126Z,276.00
2023-01-12T09:45:07.269Z,268.00
2023-01-12T09:46:07.279Z,272.00
2023-01-12T09:48:02.084Z,288.00
2023-01-12T09:49:02.021Z,280.00
2023-01-12T09:50:56.174Z,292.00
2023-01-12T09:51:56.171Z,296.00
2023-01-12T09:53:51.322Z,316.00
2023-01-12T09:54:51.274Z,336.00
2023-01-12T09:56:46.060Z,360.00
2023-01-12T09:57:46.012Z,352.00
2023-01-12T09:59:40.818Z,360.00
2023-01-12T10:00:40.837Z,372.00
2023-01-12T10:02:35.188Z,356.00
2023-01-12T10:03:35.083Z,340.00
2023-01-12T10:05:38.993Z,336.00
2023-01-12T10:06:29.924Z,340.00
2023-01-12T10:08:25.789Z,344.00
2023-01-12T10:09:25.764Z,348.00
2023-01-12T10:11:20.024Z,360.00
2023-01-12T10:12:19.973Z,372.00
2023-01-12T10:14:14.238Z,372.00
2023-01-12T10:15:14.177Z,372.00
2023-01-12T10:17:09.403Z,388.00
2023-01-12T10:18:09.397Z,376.00
2023-01-12T10:20:04.556Z,392.00
2023-01-12T10:21:04.531Z,392.00
2023-01-12T10:22:59.674Z,372.00
2023-01-12T10:23:59.692Z,376.00
2023-01-12T10:25:54.424Z,416.00
2023-01-12T10:26:54.418Z,428.00
2023-01-12T10:28:50.694Z,416.00
2023-01-12T10:29:50.459Z,404.00
2023-01-12T10:31:44.605Z,360.00
2023-01-12T10:32:44.551Z,344.00
2023-01-12T10:34:39.802Z,304.00
2023-01-12T10:35:39.765Z,304.00
2023-01-12T10:37:33.948Z,336.00
2023-01-12T10:38:33.897Z,344.00
2023-01-12T10:40:29.413Z,364.00
2023-01-12T10:41:29.014Z,364.00
2023-01-12T10:43:23.883Z,384.00
2023-01-12T10:44:23.782Z,368.00
2023-01-12T10:46:17.956Z,356.00
2023-01-12T10:47:17.895Z,364.00
2023-01-12T10:49:12.060Z,352.00
2023-01-12T10:50:12.043Z,360.00
2023-01-12T10:52:06.246Z,412.00
2023-01-12T10:53:06.214Z,440.00
2023-01-12T10:55:01.406Z,568.00
2023-01-12T10:56:01.383Z,580.00
2023-01-12T10:57:56.241Z,616.00
2023-01-12T10:58:56.225Z,652.00
2023-01-12T11:00:52.777Z,612.00
2023-01-12T11:01:52.698Z,620.00
2023-01-12T11:03:46.641Z,564.00
2023-01-12T11:04:46.614Z,536.00
2023-01-12T11:06:40.865Z,492.00
2023-01-12T11:07:40.858Z,496.00
2023-01-12T11:09:35.257Z,444.00
2023-01-12T11:10:35.229Z,448.00
2023-01-12T11:12:29.946Z,464.00
2023-01-12T11:13:29.380Z,452.00
2023-01-12T11:15:23.479Z,456.00
2023-01-12T11:16:23.517Z,476.00
2023-01-12T11:18:18.603Z,508.00
2023-01-12T11:19:18.592Z,492.00
2023-01-12T11:21:14.732Z,456.00
2023-01-12T11:22:13.460Z,448.00
2023-01-12T11:23:13.618Z,472.00
2023-01-12T11:24:13.376Z,476.00
2023-01-12T11:25:13.374Z,488.00
2023-01-12T11:26:13.383Z,516.00
2023-01-12T11:27:13.366Z,544.00
2023-01-12T11:28:13.351Z,564.00
2023-01-12T11:29:13.344Z,556.00
2023-01-12T11:30:13.352Z,532.00
2023-01-12T11:31:13.386Z,508.00
2023-01-12T11:32:13.328Z,472.00
2023-01-12T11:33:13.325Z,432.00
2023-01-12T11:34:13.313Z,412.00
2023-01-12T11:35:13.303Z,404.00
2023-01-12T11:36:13.299Z,392.00
2023-01-12T11:37:13.315Z,416.00
2023-01-12T11:38:13.286Z,436.00
2023-01-12T11:39:13.290Z,448.00
2023-01-12T11:40:13.280Z,496.00
2023-01-12T11:41:13.264Z,504.00
2023-01-12T11:42:13.263Z,540.00
2023-01-12T11:43:13.253Z,564.00
2023-01-12T11:44:13.242Z,572.00
2023-01-12T11:45:13.237Z,568.00
2023-01-12T11:46:13.266Z,576.00
2023-01-12T11:47:13.221Z,544.00
2023-01-12T11:48:13.214Z,516.00
2023-01-12T11:49:13.213Z,468.00
2023-01-12T11:50:13.208Z,424.00
2023-01-12T11:51:13.200Z,412.00
2023-01-12T11:52:13.229Z,404.00
2023-01-12T11:53:13.179Z,388.00
2023-01-12T11:54:13.187Z,392.00
2023-01-12T11:55:13.183Z,388.00
2023-01-12T11:56:13.167Z,400.00
2023-01-12T11:57:13.174Z,396.00
2023-01-12T11:58:13.157Z,392.00
2023-01-12T11:59:13.146Z,408.00
2023-01-12T12:00:13.163Z,392.00
2023-01-12T12:01:13.191Z,420.00
2023-01-12T12:02:13.220Z,432.00
2023-01-12T12:03:13.120Z,408.00
2023-01-12T12:04:13.122Z,372.00
2023-01-12T12:05:13.112Z,356.00
2023-01-12T12:06:13.114Z,348.00
2023-01-12T12:07:13.096Z,336.00
2023-01-12T12:08:13.103Z,336.00
2023-01-12T12:09:13.087Z,356.00
2023-01-12T12:10:13.072Z,356.00
2023-01-12T12:11:13.072Z,356.00
2023-01-12T12:12:13.101Z,372.00
2023-01-12T12:13:13.078Z,384.00
2023-01-12T12:14:13.052Z,408.00
2023-01-12T12:15:13.046Z,416.00
2023-01-12T12:16:13.102Z,432.00
2023-01-12T12:17:13.045Z,460.00
2023-01-12T12:18:13.029Z,496.00
2023-01-12T12:19:13.020Z,524.00
2023-01-12T12:20:13.012Z,524.00
2023-01-12T12:21:13.025Z,548.00
2023-01-12T12:22:12.997Z,536.00
2023-01-12T12:23:12.999Z,520.00
2023-01-12T12:24:13.006Z,504.00
2023-01-12T12:25:13.022Z,504.00
2023-01-12T12:26:13.004Z,508.00
2023-01-12T12:27:12.989Z,544.00
2023-01-12T12:28:12.962Z,564.00
2023-01-12T12:29:12.959Z,540.00
2023-01-12T12:30:12.961Z,572.00
2023-01-12T12:31:13.049Z,600.00
2023-01-12T12:32:12.937Z,600.00
2023-01-12T12:33:12.945Z,560.00
2023-01-12T12:34:12.926Z,552.00
2023-01-12T12:35:12.918Z,548.00
2023-01-12T12:36:12.917Z,528.00
2023-01-12T12:37:12.939Z,512.00
2023-01-12T12:38:12.915Z,492.00
2023-01-12T12:39:12.894Z,472.00
2023-01-12T12:40:12.964Z,472.00
2023-01-12T12:41:12.885Z,452.00
2023-01-12T12:42:12.875Z,436.00
2023-01-12T12:43:12.896Z,440.00
2023-01-12T12:44:12.862Z,424.00
2023-01-12T12:45:12.852Z,420.00
2023-01-12T12:46:12.906Z,436.00
2023-01-12T12:47:12.834Z,440.00
2023-01-12T12:48:12.849Z,452.00
2023-01-12T12:49:12.830Z,440.00
2023-01-12T12:50:12.887Z,428.00
2023-01-12T12:51:12.834Z,416.00
2023-01-12T12:52:12.812Z,400.00
2023-01-12T12:53:12.824Z,400.00
2023-01-12T12:54:12.797Z,396.00
2023-01-12T12:55:12.796Z,392.00
2023-01-12T12:56:12.805Z,388.00
2023-01-12T12:57:12.784Z,380.00
2023-01-12T12:58:12.773Z,372.00
2023-01-12T12:59:12.771Z,368.00
2023-01-12T13:00:12.855Z,360.00
2023-01-12T13:01:12.866Z,348.00
2023-01-12T13:02:12.799Z,336.00
2023-01-12T13:03:12.792Z,320.00
2023-01-12T13:04:12.751Z,308.00
2023-01-12T13:05:12.728Z,312.00
2023-01-12T13:06:12.728Z,316.00
2023-01-12T13:07:12.713Z,308.00
2023-01-12T13:08:12.719Z,296.00
2023-01-12T13:09:12.729Z,288.00
2023-01-12T13:10:12.713Z,276.00
2023-01-12T13:11:12.707Z,260.00
2023-01-12T13:12:12.687Z,244.00
2023-01-12T13:13:12.681Z,232.00
2023-01-12T13:14:12.674Z,232.00
2023-01-12T13:15:12.672Z,232.00
2023-01-12T13:16:12.787Z,228.00
2023-01-12T13:17:12.655Z,228.00
2023-01-12T13:18:12.645Z,236.00
2023-01-12T13:19:12.665Z,252.00
2023-01-12T13:20:24.498Z,284.00
2023-01-12T13:21:12.649Z,296.00
2023-01-12T13:22:12.621Z,308.00
2023-01-12T13:23:12.609Z,312.00
2023-01-12T13:24:12.625Z,312.00
2023-01-12T13:25:12.609Z,332.00
2023-01-12T13:26:12.632Z,332.00
2023-01-12T13:27:12.586Z,316.00
2023-01-12T13:28:12.584Z,304.00
2023-01-12T13:29:12.601Z,308.00
2023-01-12T13:30:12.583Z,320.00
2023-01-12T13:31:12.595Z,316.00
2023-01-12T13:32:12.561Z,300.00
2023-01-12T13:33:12.547Z,288.00
2023-01-12T13:34:12.555Z,304.00
2023-01-12T13:35:12.544Z,320.00
2023-01-12T13:36:12.543Z,328.00
2023-01-12T13:37:12.534Z,356.00
2023-01-12T13:38:12.519Z,384.00
2023-01-12T13:39:12.510Z,400.00
2023-01-12T13:40:12.527Z,416.00
2023-01-12T13:41:12.511Z,424.00
2023-01-12T13:42:12.497Z,424.00
2023-01-12T13:43:12.506Z,408.00
2023-01-12T13:44:12.477Z,388.00
2023-01-12T13:45:12.471Z,340.00
2023-01-12T13:46:12.543Z,308.00
2023-01-12T13:47:12.459Z,252.00
2023-01-12T13:48:12.454Z,256.00
2023-01-12T13:49:12.454Z,236.00
2023-01-12T13:50:12.444Z,216.00
2023-01-12T13:51:12.440Z,208.00
2023-01-12T13:52:12.434Z,196.00
2023-01-12T13:53:12.425Z,184.00
2023-01-12T13:54:12.422Z,180.00
2023-01-12T13:55:12.408Z,164.00
2023-01-12T13:56:12.400Z,156.00
2023-01-12T13:57:12.409Z,152.00
2023-01-12T13:58:12.386Z,152.00
2023-01-12T13:59:12.399Z,160.00
2023-01-12T14:00:12.389Z,168.00
2023-01-12T14:01:12.419Z,164.00
2023-01-12T14:02:12.444Z,160.00
2023-01-12T14:03:12.400Z,152.00
2023-01-12T14:04:12.356Z,152.00
2023-01-12T14:05:12.341Z,152.00
2023-01-12T14:06:12.340Z,148.00
2023-01-12T14:07:12.336Z,148.00
2023-01-12T14:08:12.359Z,144.00
2023-01-12T14:09:12.323Z,132.00
2023-01-12T14:10:12.315Z,124.00
2023-01-12T14:11:12.316Z,116.00
2023-01-12T14:12:12.317Z,116.00
2023-01-12T14:13:12.293Z,108.00
2023-01-12T14:14:12.289Z,96.00
2023-01-12T14:15:12.295Z,92.00
2023-01-12T14:16:12.306Z,92.00
2023-01-12T14:17:12.264Z,92.00
2023-01-12T14:18:12.261Z,80.00
2023-01-12T14:19:12.253Z,84.00
2023-01-12T14:20:12.263Z,84.00
2023-01-12T14:21:12.283Z,88.00
2023-01-12T14:22:12.241Z,92.00
2023-01-12T14:23:12.226Z,96.00
2023-01-12T14:24:12.231Z,104.00
2023-01-12T14:25:12.233Z,100.00
2023-01-12T14:26:12.215Z,100.00
2023-01-12T14:27:12.224Z,104.00
2023-01-12T14:28:12.206Z,112.00
2023-01-12T14:29:12.206Z,120.00
2023-01-12T14:30:12.187Z,120.00
2023-01-12T14:31:12.232Z,120.00
2023-01-12T14:32:12.177Z,136.00
2023-01-12T14:33:14.120Z,144.00
2023-01-12T14:34:12.155Z,144.00
2023-01-12T14:35:12.156Z,136.00
2023-01-12T14:36:12.150Z,132.00